sensor_id;sensor_type;location;lat;lon;timestamp;P1;durP1;ratioP1;P2;durP2;ratioP2
32786;SDS011;19139;49.372;8.580;2023-01-23T00:01:44;4.30;;;3.40;;
32786;SDS011;19139;49.372;8.580;2023-01-23T00:04:12;3.50;;;2.90;;
32786;SDS011;19139;49.372;8.580;2023-01-23T00:06:44;5.00;;;3.30;;
32786;SDS011;19139;49.372;8.580;2023-01-23T00:09:11;5.50;;;3.70;;
32786;SDS011;19139;49.372;8.580;2023-01-23T00:11:43;5.83;;;3.67;;
32786;SDS011;19139;49.372;8.580;2023-01-23T00:14:14;4.47;;;3.43;;
32786;SDS011;19139;49.372;8.580;2023-01-23T00:16:41;4.40;;;3.43;;
32786;SDS011;19139;49.372;8.580;2023-01-23T00:19:12;3.57;;;2.80;;
32786;SDS011;19139;49.372;8.580;2023-01-23T00:21:44;3.87;;;3.00;;
32786;SDS011;19139;49.372;8.580;2023-01-23T00:24:15;4.07;;;3.07;;
32786;SDS011;19139;49.372;8.580;2023-01-23T00:26:42;4.10;;;3.30;;
32786;SDS011;19139;49.372;8.580;2023-01-23T00:29:13;5.40;;;3.37;;
32786;SDS011;19139;49.372;8.580;2023-01-23T00:31:45;3.57;;;2.93;;
32786;SDS011;19139;49.372;8.580;2023-01-23T00:34:13;3.70;;;3.10;;
32786;SDS011;19139;49.372;8.580;2023-01-23T00:36:45;4.40;;;3.30;;
32786;SDS011;19139;49.372;8.580;2023-01-23T00:39:16;3.13;;;2.67;;
32786;SDS011;19139;49.372;8.580;2023-01-23T00:41:49;5.20;;;3.37;;
32786;SDS011;19139;49.372;8.580;2023-01-23T00:44:20;3.37;;;2.77;;
32786;SDS011;19139;49.372;8.580;2023-01-23T00:46:52;3.07;;;2.63;;
32786;SDS011;19139;49.372;8.580;2023-01-23T00:49:23;3.60;;;2.73;;
32786;SDS011;19139;49.372;8.580;2023-01-23T00:51:55;3.43;;;2.90;;
32786;SDS011;19139;49.372;8.580;2023-01-23T00:54:22;3.70;;;2.83;;
32786;SDS011;19139;49.372;8.580;2023-01-23T00:56:55;3.83;;;2.97;;
32786;SDS011;19139;49.372;8.580;2023-01-23T00:59:22;4.63;;;2.80;;
32786;SDS011;19139;49.372;8.580;2023-01-23T01:01:54;2.87;;;2.50;;
32786;SDS011;19139;49.372;8.580;2023-01-23T01:04:25;3.27;;;2.73;;
32786;SDS011;19139;49.372;8.580;2023-01-23T01:06:52;3.07;;;2.63;;
32786;SDS011;19139;49.372;8.580;2023-01-23T01:09:24;3.80;;;2.93;;
32786;SDS011;19139;49.372;8.580;2023-01-23T01:11:55;3.20;;;2.67;;
32786;SDS011;19139;49.372;8.580;2023-01-23T01:14:22;3.10;;;2.63;;
32786;SDS011;19139;49.372;8.580;2023-01-23T01:16:53;5.07;;;3.10;;
32786;SDS011;19139;49.372;8.580;2023-01-23T01:19:25;3.53;;;2.97;;
32786;SDS011;19139;49.372;8.580;2023-01-23T01:21:53;4.20;;;2.80;;
32786;SDS011;19139;49.372;8.580;2023-01-23T01:24:24;4.50;;;2.60;;
32786;SDS011;19139;49.372;8.580;2023-01-23T01:26:51;4.23;;;2.67;;
32786;SDS011;19139;49.372;8.580;2023-01-23T01:29:23;4.30;;;2.77;;
32786;SDS011;19139;49.372;8.580;2023-01-23T01:31:54;3.90;;;2.80;;
32786;SDS011;19139;49.372;8.580;2023-01-23T01:34:21;3.40;;;2.90;;
32786;SDS011;19139;49.372;8.580;2023-01-23T01:36:52;4.03;;;3.10;;
32786;SDS011;19139;49.372;8.580;2023-01-23T01:39:24;3.10;;;2.80;;
32786;SDS011;19139;49.372;8.580;2023-01-23T01:41:55;3.27;;;2.60;;
32786;SDS011;19139;49.372;8.580;2023-01-23T01:44:23;3.07;;;2.60;;
32786;SDS011;19139;49.372;8.580;2023-01-23T01:46:55;3.17;;;2.60;;
32786;SDS011;19139;49.372;8.580;2023-01-23T01:49:25;3.90;;;2.80;;
32786;SDS011;19139;49.372;8.580;2023-01-23T01:52:02;3.70;;;2.63;;
32786;SDS011;19139;49.372;8.580;2023-01-23T01:55:08;3.30;;;2.63;;
32786;SDS011;19139;49.372;8.580;2023-01-23T01:57:34;3.90;;;2.67;;
32786;SDS011;19139;49.372;8.580;2023-01-23T02:00:07;3.30;;;3.00;;
32786;SDS011;19139;49.372;8.580;2023-01-23T02:02:41;2.97;;;2.50;;
32786;SDS011;19139;49.372;8.580;2023-01-23T02:05:22;3.47;;;2.83;;
32786;SDS011;19139;49.372;8.580;2023-01-23T02:08:09;4.20;;;2.57;;
32786;SDS011;19139;49.372;8.580;2023-01-23T02:10:43;3.57;;;2.93;;
32786;SDS011;19139;49.372;8.580;2023-01-23T02:13:25;3.50;;;2.43;;
32786;SDS011;19139;49.372;8.580;2023-01-23T02:16:03;4.23;;;3.13;;
32786;SDS011;19139;49.372;8.580;2023-01-23T02:18:34;3.87;;;3.13;;
32786;SDS011;19139;49.372;8.580;2023-01-23T02:21:06;2.70;;;2.50;;
32786;SDS011;19139;49.372;8.580;2023-01-23T02:26:41;3.30;;;2.50;;
32786;SDS011;19139;49.372;8.580;2023-01-23T02:29:14;3.20;;;2.90;;
32786;SDS011;19139;49.372;8.580;2023-01-23T02:31:41;2.77;;;2.33;;
32786;SDS011;19139;49.372;8.580;2023-01-23T02:34:14;4.57;;;2.40;;
32786;SDS011;19139;49.372;8.580;2023-01-23T02:36:46;3.30;;;2.87;;
32786;SDS011;19139;49.372;8.580;2023-01-23T02:39:18;3.70;;;2.60;;
32786;SDS011;19139;49.372;8.580;2023-01-23T02:41:45;2.77;;;2.57;;
32786;SDS011;19139;49.372;8.580;2023-01-23T02:44:25;2.83;;;2.53;;
32786;SDS011;19139;49.372;8.580;2023-01-23T02:46:54;3.60;;;2.37;;
32786;SDS011;19139;49.372;8.580;2023-01-23T02:49:22;3.10;;;2.60;;
32786;SDS011;19139;49.372;8.580;2023-01-23T02:51:54;3.33;;;2.43;;
32786;SDS011;19139;49.372;8.580;2023-01-23T02:54:25;2.80;;;2.40;;
32786;SDS011;19139;49.372;8.580;2023-01-23T02:56:52;3.70;;;2.53;;
32786;SDS011;19139;49.372;8.580;2023-01-23T02:59:23;4.10;;;2.53;;
32786;SDS011;19139;49.372;8.580;2023-01-23T03:02:13;2.67;;;2.03;;
32786;SDS011;19139;49.372;8.580;2023-01-23T03:04:45;3.17;;;2.30;;
32786;SDS011;19139;49.372;8.580;2023-01-23T03:07:12;3.53;;;2.40;;
32786;SDS011;19139;49.372;8.580;2023-01-23T03:09:43;3.43;;;2.10;;
32786;SDS011;19139;49.372;8.580;2023-01-23T03:12:13;3.27;;;2.77;;
32786;SDS011;19139;49.372;8.580;2023-01-23T03:14:45;2.70;;;2.20;;
32786;SDS011;19139;49.372;8.580;2023-01-23T03:17:13;3.43;;;2.30;;
32786;SDS011;19139;49.372;8.580;2023-01-23T03:19:45;3.13;;;2.40;;
32786;SDS011;19139;49.372;8.580;2023-01-23T03:22:12;2.43;;;2.23;;
32786;SDS011;19139;49.372;8.580;2023-01-23T03:24:44;3.57;;;2.77;;
32786;SDS011;19139;49.372;8.580;2023-01-23T03:27:11;3.57;;;2.70;;
32786;SDS011;19139;49.372;8.580;2023-01-23T03:29:38;2.63;;;2.40;;
32786;SDS011;19139;49.372;8.580;2023-01-23T03:32:23;3.43;;;2.37;;
32786;SDS011;19139;49.372;8.580;2023-01-23T03:34:56;4.20;;;2.63;;
32786;SDS011;19139;49.372;8.580;2023-01-23T03:37:23;2.63;;;2.03;;
32786;SDS011;19139;49.372;8.580;2023-01-23T03:39:54;3.20;;;2.83;;
32786;SDS011;19139;49.372;8.580;2023-01-23T03:42:44;2.93;;;2.30;;
32786;SDS011;19139;49.372;8.580;2023-01-23T03:45:11;2.40;;;2.17;;
32786;SDS011;19139;49.372;8.580;2023-01-23T03:47:42;3.43;;;2.63;;
32786;SDS011;19139;49.372;8.580;2023-01-23T03:50:14;2.90;;;2.60;;
32786;SDS011;19139;49.372;8.580;2023-01-23T03:52:41;2.53;;;2.10;;
32786;SDS011;19139;49.372;8.580;2023-01-23T03:55:08;2.30;;;2.10;;
32786;SDS011;19139;49.372;8.580;2023-01-23T03:57:34;2.80;;;2.10;;
32786;SDS011;19139;49.372;8.580;2023-01-23T04:00:01;3.07;;;2.57;;
32786;SDS011;19139;49.372;8.580;2023-01-23T04:02:34;3.10;;;2.80;;
32786;SDS011;19139;49.372;8.580;2023-01-23T04:05:05;2.80;;;2.20;;
32786;SDS011;19139;49.372;8.580;2023-01-23T04:07:32;3.03;;;2.47;;
32786;SDS011;19139;49.372;8.580;2023-01-23T04:10:04;2.67;;;2.20;;
32786;SDS011;19139;49.372;8.580;2023-01-23T04:12:36;3.10;;;2.80;;
32786;SDS011;19139;49.372;8.580;2023-01-23T04:15:02;2.40;;;2.20;;
32786;SDS011;19139;49.372;8.580;2023-01-23T04:17:34;2.50;;;2.30;;
32786;SDS011;19139;49.372;8.580;2023-01-23T04:20:05;3.40;;;2.57;;
32786;SDS011;19139;49.372;8.580;2023-01-23T04:22:32;3.20;;;2.43;;
32786;SDS011;19139;49.372;8.580;2023-01-23T04:25:04;2.67;;;2.10;;
32786;SDS011;19139;49.372;8.580;2023-01-23T04:27:31;2.50;;;2.10;;
32786;SDS011;19139;49.372;8.580;2023-01-23T04:30:03;2.50;;;2.30;;
32786;SDS011;19139;49.372;8.580;2023-01-23T04:32:35;2.40;;;2.20;;
32786;SDS011;19139;49.372;8.580;2023-01-23T04:35:01;4.57;;;2.50;;
32786;SDS011;19139;49.372;8.580;2023-01-23T04:37:33;2.83;;;2.43;;
32786;SDS011;19139;49.372;8.580;2023-01-23T04:40:04;2.43;;;2.20;;
32786;SDS011;19139;49.372;8.580;2023-01-23T04:42:31;2.63;;;1.97;;
32786;SDS011;19139;49.372;8.580;2023-01-23T04:45:03;2.40;;;2.00;;
32786;SDS011;19139;49.372;8.580;2023-01-23T04:47:35;2.30;;;2.03;;
32786;SDS011;19139;49.372;8.580;2023-01-23T04:50:02;2.20;;;2.00;;
32786;SDS011;19139;49.372;8.580;2023-01-23T04:52:34;2.37;;;2.17;;
32786;SDS011;19139;49.372;8.580;2023-01-23T04:55:06;2.23;;;2.00;;
32786;SDS011;19139;49.372;8.580;2023-01-23T04:57:32;2.40;;;2.10;;
32786;SDS011;19139;49.372;8.580;2023-01-23T05:00:04;3.77;;;2.17;;
32786;SDS011;19139;49.372;8.580;2023-01-23T05:02:31;2.90;;;2.57;;
32786;SDS011;19139;49.372;8.580;2023-01-23T05:05:03;2.30;;;2.10;;
32786;SDS011;19139;49.372;8.580;2023-01-23T05:07:35;2.60;;;2.40;;
32786;SDS011;19139;49.372;8.580;2023-01-23T05:10:01;2.50;;;2.07;;
32786;SDS011;19139;49.372;8.580;2023-01-23T05:12:33;3.00;;;2.20;;
32786;SDS011;19139;49.372;8.580;2023-01-23T05:15:05;2.70;;;2.10;;
32786;SDS011;19139;49.372;8.580;2023-01-23T05:17:32;3.83;;;2.87;;
32786;SDS011;19139;49.372;8.580;2023-01-23T05:20:04;3.33;;;2.30;;
32786;SDS011;19139;49.372;8.580;2023-01-23T05:22:31;2.57;;;2.37;;
32786;SDS011;19139;49.372;8.580;2023-01-23T05:25:03;2.57;;;2.37;;
32786;SDS011;19139;49.372;8.580;2023-01-23T05:27:35;2.63;;;2.07;;
32786;SDS011;19139;49.372;8.580;2023-01-23T05:30:02;2.63;;;1.93;;
32786;SDS011;19139;49.372;8.580;2023-01-23T05:32:28;3.33;;;2.57;;
32786;SDS011;19139;49.372;8.580;2023-01-23T05:34:55;2.17;;;1.97;;
32786;SDS011;19139;49.372;8.580;2023-01-23T05:37:21;2.13;;;1.90;;
32786;SDS011;19139;49.372;8.580;2023-01-23T05:39:55;2.87;;;2.10;;
32786;SDS011;19139;49.372;8.580;2023-01-23T05:42:22;2.77;;;1.93;;
32786;SDS011;19139;49.372;8.580;2023-01-23T05:44:53;2.77;;;2.47;;
32786;SDS011;19139;49.372;8.580;2023-01-23T05:47:25;3.43;;;2.33;;
32786;SDS011;19139;49.372;8.580;2023-01-23T05:49:53;3.17;;;2.40;;
32786;SDS011;19139;49.372;8.580;2023-01-23T05:52:24;2.13;;;1.93;;
32786;SDS011;19139;49.372;8.580;2023-01-23T05:54:56;2.20;;;2.00;;
32786;SDS011;19139;49.372;8.580;2023-01-23T05:57:22;2.57;;;2.00;;
32786;SDS011;19139;49.372;8.580;2023-01-23T05:59:54;2.30;;;1.93;;
32786;SDS011;19139;49.372;8.580;2023-01-23T06:02:25;2.63;;;2.30;;
32786;SDS011;19139;49.372;8.580;2023-01-23T06:04:52;3.03;;;2.30;;
32786;SDS011;19139;49.372;8.580;2023-01-23T06:07:23;3.00;;;2.00;;
32786;SDS011;19139;49.372;8.580;2023-01-23T06:09:55;2.63;;;2.00;;
32786;SDS011;19139;49.372;8.580;2023-01-23T06:12:22;3.80;;;2.10;;
32786;SDS011;19139;49.372;8.580;2023-01-23T06:14:53;2.50;;;2.00;;
32786;SDS011;19139;49.372;8.580;2023-01-23T06:17:25;2.30;;;2.07;;
32786;SDS011;19139;49.372;8.580;2023-01-23T06:19:51;2.27;;;2.03;;
32786;SDS011;19139;49.372;8.580;2023-01-23T06:22:23;3.37;;;2.10;;
32786;SDS011;19139;49.372;8.580;2023-01-23T06:24:54;2.63;;;2.23;;
32786;SDS011;19139;49.372;8.580;2023-01-23T06:27:21;3.87;;;2.67;;
32786;SDS011;19139;49.372;8.580;2023-01-23T06:29:53;2.57;;;2.10;;
32786;SDS011;19139;49.372;8.580;2023-01-23T06:32:24;2.73;;;2.30;;
32786;SDS011;19139;49.372;8.580;2023-01-23T06:34:55;2.17;;;1.97;;
32786;SDS011;19139;49.372;8.580;2023-01-23T06:37:22;2.70;;;2.17;;
32786;SDS011;19139;49.372;8.580;2023-01-23T06:39:53;2.93;;;2.27;;
32786;SDS011;19139;49.372;8.580;2023-01-23T06:42:25;3.40;;;2.00;;
32786;SDS011;19139;49.372;8.580;2023-01-23T06:44:51;2.33;;;2.10;;
32786;SDS011;19139;49.372;8.580;2023-01-23T06:47:23;2.07;;;1.87;;
32786;SDS011;19139;49.372;8.580;2023-01-23T06:49:54;3.03;;;2.73;;
32786;SDS011;19139;49.372;8.580;2023-01-23T06:52:21;6.90;;;6.20;;
32786;SDS011;19139;49.372;8.580;2023-01-23T06:54:52;9.07;;;7.43;;
32786;SDS011;19139;49.372;8.580;2023-01-23T06:57:24;7.00;;;6.10;;
32786;SDS011;19139;49.372;8.580;2023-01-23T06:59:56;6.97;;;5.77;;
32786;SDS011;19139;49.372;8.580;2023-01-23T07:02:22;5.70;;;4.83;;
32786;SDS011;19139;49.372;8.580;2023-01-23T07:04:54;5.07;;;3.97;;
32786;SDS011;19139;49.372;8.580;2023-01-23T07:07:25;4.60;;;4.10;;
32786;SDS011;19139;49.372;8.580;2023-01-23T07:09:52;6.80;;;4.50;;
32786;SDS011;19139;49.372;8.580;2023-01-23T07:12:23;4.93;;;3.87;;
32786;SDS011;19139;49.372;8.580;2023-01-23T07:14:55;5.00;;;3.80;;
32786;SDS011;19139;49.372;8.580;2023-01-23T07:17:22;4.57;;;4.00;;
32786;SDS011;19139;49.372;8.580;2023-01-23T07:19:53;4.47;;;4.07;;
32786;SDS011;19139;49.372;8.580;2023-01-23T07:22:25;5.87;;;4.30;;
32786;SDS011;19139;49.372;8.580;2023-01-23T07:24:51;3.60;;;3.10;;
32786;SDS011;19139;49.372;8.580;2023-01-23T07:27:23;5.73;;;3.57;;
32786;SDS011;19139;49.372;8.580;2023-01-23T07:29:54;3.77;;;3.40;;
32786;SDS011;19139;49.372;8.580;2023-01-23T07:32:21;3.90;;;3.20;;
32786;SDS011;19139;49.372;8.580;2023-01-23T07:34:52;3.80;;;3.07;;
32786;SDS011;19139;49.372;8.580;2023-01-23T07:37:24;4.20;;;3.63;;
32786;SDS011;19139;49.372;8.580;2023-01-23T07:39:55;4.73;;;3.33;;
32786;SDS011;19139;49.372;8.580;2023-01-23T07:42:22;4.63;;;3.43;;
32786;SDS011;19139;49.372;8.580;2023-01-23T07:44:53;3.73;;;2.83;;
32786;SDS011;19139;49.372;8.580;2023-01-23T07:47:25;4.97;;;3.53;;
32786;SDS011;19139;49.372;8.580;2023-01-23T07:49:52;5.13;;;3.70;;
32786;SDS011;19139;49.372;8.580;2023-01-23T07:52:23;6.60;;;2.93;;
32786;SDS011;19139;49.372;8.580;2023-01-23T07:54:54;4.03;;;3.07;;
32786;SDS011;19139;49.372;8.580;2023-01-23T07:57:21;4.47;;;3.10;;
32786;SDS011;19139;49.372;8.580;2023-01-23T07:59:53;5.07;;;2.70;;
32786;SDS011;19139;49.372;8.580;2023-01-23T08:02:24;4.23;;;3.40;;
32786;SDS011;19139;49.372;8.580;2023-01-23T08:04:51;4.47;;;2.80;;
32786;SDS011;19139;49.372;8.580;2023-01-23T08:07:22;7.50;;;4.93;;
32786;SDS011;19139;49.372;8.580;2023-01-23T08:09:54;4.57;;;2.90;;
32786;SDS011;19139;49.372;8.580;2023-01-23T08:12:25;4.07;;;3.07;;
32786;SDS011;19139;49.372;8.580;2023-01-23T08:14:52;5.27;;;3.00;;
32786;SDS011;19139;49.372;8.580;2023-01-23T08:17:23;3.60;;;2.90;;
32786;SDS011;19139;49.372;8.580;2023-01-23T08:19:55;4.27;;;2.70;;
32786;SDS011;19139;49.372;8.580;2023-01-23T08:22:21;7.13;;;3.10;;
32786;SDS011;19139;49.372;8.580;2023-01-23T08:24:53;5.17;;;3.50;;
32786;SDS011;19139;49.372;8.580;2023-01-23T08:27:24;4.83;;;3.20;;
32786;SDS011;19139;49.372;8.580;2023-01-23T08:29:51;3.87;;;3.40;;
32786;SDS011;19139;49.372;8.580;2023-01-23T08:32:17;4.43;;;3.00;;
32786;SDS011;19139;49.372;8.580;2023-01-23T08:34:44;4.13;;;2.60;;
32786;SDS011;19139;49.372;8.580;2023-01-23T08:37:15;4.33;;;2.63;;
32786;SDS011;19139;49.372;8.580;2023-01-23T08:39:42;4.47;;;3.10;;
32786;SDS011;19139;49.372;8.580;2023-01-23T08:42:13;3.30;;;2.90;;
32786;SDS011;19139;49.372;8.580;2023-01-23T08:44:45;4.33;;;3.43;;
32786;SDS011;19139;49.372;8.580;2023-01-23T08:47:11;5.60;;;2.63;;
32786;SDS011;19139;49.372;8.580;2023-01-23T08:49:43;3.60;;;2.90;;
32786;SDS011;19139;49.372;8.580;2023-01-23T08:52:14;3.73;;;3.33;;
32786;SDS011;19139;49.372;8.580;2023-01-23T08:54:41;4.77;;;3.10;;
32786;SDS011;19139;49.372;8.580;2023-01-23T08:57:13;5.40;;;2.80;;
32786;SDS011;19139;49.372;8.580;2023-01-23T08:59:44;4.57;;;2.63;;
32786;SDS011;19139;49.372;8.580;2023-01-23T09:02:16;4.37;;;3.37;;
32786;SDS011;19139;49.372;8.580;2023-01-23T09:04:42;3.73;;;2.50;;
32786;SDS011;19139;49.372;8.580;2023-01-23T09:07:14;3.23;;;2.87;;
32786;SDS011;19139;49.372;8.580;2023-01-23T09:09:45;4.73;;;3.20;;
32786;SDS011;19139;49.372;8.580;2023-01-23T09:12:12;4.13;;;3.23;;
32786;SDS011;19139;49.372;8.580;2023-01-23T09:14:43;4.03;;;2.70;;
32786;SDS011;19139;49.372;8.580;2023-01-23T09:17:15;2.73;;;2.53;;
32786;SDS011;19139;49.372;8.580;2023-01-23T09:19:41;3.33;;;3.03;;
32786;SDS011;19139;49.372;8.580;2023-01-23T09:22:13;3.60;;;2.70;;
32786;SDS011;19139;49.372;8.580;2023-01-23T09:24:45;3.67;;;2.97;;
32786;SDS011;19139;49.372;8.580;2023-01-23T09:27:12;3.10;;;2.77;;
32786;SDS011;19139;49.372;8.580;2023-01-23T09:29:44;4.07;;;2.90;;
32786;SDS011;19139;49.372;8.580;2023-01-23T09:32:15;4.43;;;2.97;;
32786;SDS011;19139;49.372;8.580;2023-01-23T09:34:42;4.60;;;2.77;;
32786;SDS011;19139;49.372;8.580;2023-01-23T09:37:14;4.07;;;3.30;;
32786;SDS011;19139;49.372;8.580;2023-01-23T09:39:42;3.60;;;2.50;;
32786;SDS011;19139;49.372;8.580;2023-01-23T09:42:21;3.20;;;2.60;;
32786;SDS011;19139;49.372;8.580;2023-01-23T09:44:54;5.30;;;2.60;;
32786;SDS011;19139;49.372;8.580;2023-01-23T09:47:27;4.67;;;2.87;;
32786;SDS011;19139;49.372;8.580;2023-01-23T09:50:08;4.80;;;2.40;;
32786;SDS011;19139;49.372;8.580;2023-01-23T09:52:47;2.93;;;2.70;;
32786;SDS011;19139;49.372;8.580;2023-01-23T09:55:40;5.00;;;2.97;;
32786;SDS011;19139;49.372;8.580;2023-01-23T09:58:26;4.30;;;3.10;;
32786;SDS011;19139;49.372;8.580;2023-01-23T10:01:01;4.07;;;2.60;;
32786;SDS011;19139;49.372;8.580;2023-01-23T10:03:29;2.90;;;2.60;;
32786;SDS011;19139;49.372;8.580;2023-01-23T10:09:03;4.13;;;3.07;;
32786;SDS011;19139;49.372;8.580;2023-01-23T10:22:48;2.97;;;2.57;;
32786;SDS011;19139;49.372;8.580;2023-01-23T10:25:23;3.60;;;2.60;;
32786;SDS011;19139;49.372;8.580;2023-01-23T10:27:54;3.43;;;2.90;;
32786;SDS011;19139;49.372;8.580;2023-01-23T10:30:31;2.80;;;2.33;;
32786;SDS011;19139;49.372;8.580;2023-01-23T10:35:52;4.93;;;2.80;;
32786;SDS011;19139;49.372;8.580;2023-01-23T10:38:43;3.30;;;2.47;;
32786;SDS011;19139;49.372;8.580;2023-01-23T10:41:14;4.23;;;2.33;;
32786;SDS011;19139;49.372;8.580;2023-01-23T10:43:49;12.27;;;4.00;;
32786;SDS011;19139;49.372;8.580;2023-01-23T10:46:33;3.00;;;2.67;;
32786;SDS011;19139;49.372;8.580;2023-01-23T10:49:23;3.37;;;2.93;;
32786;SDS011;19139;49.372;8.580;2023-01-23T10:51:57;3.23;;;2.63;;
32786;SDS011;19139;49.372;8.580;2023-01-23T10:54:24;3.17;;;2.60;;
32786;SDS011;19139;49.372;8.580;2023-01-23T10:57:35;3.80;;;3.03;;
32786;SDS011;19139;49.372;8.580;2023-01-23T11:02:29;5.87;;;3.30;;
32786;SDS011;19139;49.372;8.580;2023-01-23T11:05:11;3.77;;;2.50;;
32786;SDS011;19139;49.372;8.580;2023-01-23T11:08:21;5.60;;;2.97;;
32786;SDS011;19139;49.372;8.580;2023-01-23T11:11:14;2.87;;;2.57;;
32786;SDS011;19139;49.372;8.580;2023-01-23T11:13:46;3.10;;;2.80;;
32786;SDS011;19139;49.372;8.580;2023-01-23T11:16:24;4.27;;;3.10;;
32786;SDS011;19139;49.372;8.580;2023-01-23T11:18:54;3.20;;;2.73;;
32786;SDS011;19139;49.372;8.580;2023-01-23T11:21:34;3.23;;;2.53;;
32786;SDS011;19139;49.372;8.580;2023-01-23T11:24:09;6.10;;;3.13;;
32786;SDS011;19139;49.372;8.580;2023-01-23T11:26:44;3.70;;;2.70;;
32786;SDS011;19139;49.372;8.580;2023-01-23T11:29:21;3.73;;;2.63;;
32786;SDS011;19139;49.372;8.580;2023-01-23T11:31:50;5.87;;;3.03;;
32786;SDS011;19139;49.372;8.580;2023-01-23T11:35:01;3.20;;;2.80;;
32786;SDS011;19139;49.372;8.580;2023-01-23T11:39:56;3.43;;;2.33;;
32786;SDS011;19139;49.372;8.580;2023-01-23T11:42:36;3.43;;;2.93;;
32786;SDS011;19139;49.372;8.580;2023-01-23T11:45:13;4.50;;;2.93;;
32786;SDS011;19139;49.372;8.580;2023-01-23T11:50:54;4.47;;;3.40;;
32786;SDS011;19139;49.372;8.580;2023-01-23T11:59:19;3.97;;;2.87;;
32786;SDS011;19139;49.372;8.580;2023-01-23T12:02:09;3.83;;;2.83;;
32786;SDS011;19139;49.372;8.580;2023-01-23T12:05:12;5.47;;;2.73;;
32786;SDS011;19139;49.372;8.580;2023-01-23T12:10:29;4.07;;;2.90;;
32786;SDS011;19139;49.372;8.580;2023-01-23T12:16:06;3.87;;;2.53;;
32786;SDS011;19139;49.372;8.580;2023-01-23T12:21:32;4.43;;;3.30;;
32786;SDS011;19139;49.372;8.580;2023-01-23T12:27:15;5.03;;;3.50;;
32786;SDS011;19139;49.372;8.580;2023-01-23T12:35:29;4.30;;;2.63;;
32786;SDS011;19139;49.372;8.580;2023-01-23T12:40:51;4.53;;;2.83;;
32786;SDS011;19139;49.372;8.580;2023-01-23T12:43:32;3.17;;;2.87;;
32786;SDS011;19139;49.372;8.580;2023-01-23T12:46:11;3.50;;;2.50;;
32786;SDS011;19139;49.372;8.580;2023-01-23T12:48:45;3.87;;;2.77;;
32786;SDS011;19139;49.372;8.580;2023-01-23T12:51:38;5.57;;;3.33;;
32786;SDS011;19139;49.372;8.580;2023-01-23T12:54:16;3.57;;;2.90;;
32786;SDS011;19139;49.372;8.580;2023-01-23T12:57:03;3.00;;;2.20;;
32786;SDS011;19139;49.372;8.580;2023-01-23T13:02:13;4.87;;;2.70;;
32786;SDS011;19139;49.372;8.580;2023-01-23T13:04:57;3.07;;;2.63;;
32786;SDS011;19139;49.372;8.580;2023-01-23T13:07:59;4.87;;;3.10;;
32786;SDS011;19139;49.372;8.580;2023-01-23T13:13:31;4.80;;;3.07;;
32786;SDS011;19139;49.372;8.580;2023-01-23T13:16:11;3.77;;;2.60;;
32786;SDS011;19139;49.372;8.580;2023-01-23T13:18:41;4.03;;;3.27;;
32786;SDS011;19139;49.372;8.580;2023-01-23T13:21:40;4.80;;;2.70;;
32786;SDS011;19139;49.372;8.580;2023-01-23T13:25:00;3.67;;;3.00;;
32786;SDS011;19139;49.372;8.580;2023-01-23T13:27:49;4.63;;;3.20;;
32786;SDS011;19139;49.372;8.580;2023-01-23T13:33:48;3.27;;;2.80;;
32786;SDS011;19139;49.372;8.580;2023-01-23T13:36:13;3.93;;;2.80;;
32786;SDS011;19139;49.372;8.580;2023-01-23T13:38:59;3.60;;;2.47;;
32786;SDS011;19139;49.372;8.580;2023-01-23T13:41:31;3.63;;;3.10;;
32786;SDS011;19139;49.372;8.580;2023-01-23T13:44:14;4.77;;;2.93;;
32786;SDS011;19139;49.372;8.580;2023-01-23T13:46:56;5.37;;;2.83;;
32786;SDS011;19139;49.372;8.580;2023-01-23T13:53:23;5.07;;;3.20;;
32786;SDS011;19139;49.372;8.580;2023-01-23T13:56:23;4.73;;;3.43;;
32786;SDS011;19139;49.372;8.580;2023-01-23T13:59:25;6.17;;;3.00;;
32786;SDS011;19139;49.372;8.580;2023-01-23T14:02:17;5.87;;;3.23;;
32786;SDS011;19139;49.372;8.580;2023-01-23T14:05:31;5.20;;;3.33;;
32786;SDS011;19139;49.372;8.580;2023-01-23T14:08:21;5.17;;;3.40;;
32786;SDS011;19139;49.372;8.580;2023-01-23T14:11:02;4.67;;;3.60;;
32786;SDS011;19139;49.372;8.580;2023-01-23T14:13:54;8.00;;;4.00;;
32786;SDS011;19139;49.372;8.580;2023-01-23T14:16:58;4.07;;;3.07;;
32786;SDS011;19139;49.372;8.580;2023-01-23T14:19:48;4.97;;;3.73;;
32786;SDS011;19139;49.372;8.580;2023-01-23T14:22:31;5.43;;;2.90;;
32786;SDS011;19139;49.372;8.580;2023-01-23T14:24:58;5.20;;;3.27;;
32786;SDS011;19139;49.372;8.580;2023-01-23T14:27:35;6.10;;;4.07;;
32786;SDS011;19139;49.372;8.580;2023-01-23T14:30:20;5.40;;;3.60;;
32786;SDS011;19139;49.372;8.580;2023-01-23T14:32:55;5.93;;;3.63;;
32786;SDS011;19139;49.372;8.580;2023-01-23T14:37:52;5.57;;;3.10;;
32786;SDS011;19139;49.372;8.580;2023-01-23T14:40:21;5.80;;;3.63;;
32786;SDS011;19139;49.372;8.580;2023-01-23T14:43:01;4.73;;;3.27;;
32786;SDS011;19139;49.372;8.580;2023-01-23T14:45:30;4.00;;;3.43;;
32786;SDS011;19139;49.372;8.580;2023-01-23T14:48:05;6.37;;;4.13;;
32786;SDS011;19139;49.372;8.580;2023-01-23T14:50:43;3.90;;;3.50;;
32786;SDS011;19139;49.372;8.580;2023-01-23T14:53:15;7.17;;;4.30;;
32786;SDS011;19139;49.372;8.580;2023-01-23T14:55:44;7.50;;;3.43;;
32786;SDS011;19139;49.372;8.580;2023-01-23T14:58:31;9.47;;;4.60;;
32786;SDS011;19139;49.372;8.580;2023-01-23T15:01:03;7.03;;;3.30;;
32786;SDS011;19139;49.372;8.580;2023-01-23T15:03:36;6.03;;;4.23;;
32786;SDS011;19139;49.372;8.580;2023-01-23T15:06:05;5.57;;;3.67;;
32786;SDS011;19139;49.372;8.580;2023-01-23T15:08:45;5.80;;;3.77;;
32786;SDS011;19139;49.372;8.580;2023-01-23T15:11:25;4.73;;;3.73;;
32786;SDS011;19139;49.372;8.580;2023-01-23T15:13:58;6.60;;;3.40;;
32786;SDS011;19139;49.372;8.580;2023-01-23T15:16:35;7.50;;;3.90;;
32786;SDS011;19139;49.372;8.580;2023-01-23T15:19:20;6.17;;;4.00;;
32786;SDS011;19139;49.372;8.580;2023-01-23T15:22:04;5.67;;;3.73;;
32786;SDS011;19139;49.372;8.580;2023-01-23T15:24:51;5.43;;;3.50;;
32786;SDS011;19139;49.372;8.580;2023-01-23T15:27:35;7.13;;;5.23;;
32786;SDS011;19139;49.372;8.580;2023-01-23T15:33:22;9.10;;;8.10;;
32786;SDS011;19139;49.372;8.580;2023-01-23T15:36:03;8.87;;;6.00;;
32786;SDS011;19139;49.372;8.580;2023-01-23T15:38:33;9.77;;;6.57;;
32786;SDS011;19139;49.372;8.580;2023-01-23T15:41:06;10.27;;;6.53;;
32786;SDS011;19139;49.372;8.580;2023-01-23T15:43:34;10.57;;;6.03;;
32786;SDS011;19139;49.372;8.580;2023-01-23T15:46:00;9.73;;;6.93;;
32786;SDS011;19139;49.372;8.580;2023-01-23T15:48:27;9.03;;;6.17;;
32786;SDS011;19139;49.372;8.580;2023-01-23T15:50:54;12.97;;;6.57;;
32786;SDS011;19139;49.372;8.580;2023-01-23T15:53:20;8.50;;;5.97;;
32786;SDS011;19139;49.372;8.580;2023-01-23T15:55:47;12.17;;;6.80;;
32786;SDS011;19139;49.372;8.580;2023-01-23T15:58:13;11.73;;;6.07;;
32786;SDS011;19139;49.372;8.580;2023-01-23T16:00:40;11.33;;;5.50;;
32786;SDS011;19139;49.372;8.580;2023-01-23T16:03:12;9.83;;;5.37;;
32786;SDS011;19139;49.372;8.580;2023-01-23T16:05:40;10.87;;;6.00;;
32786;SDS011;19139;49.372;8.580;2023-01-23T16:08:16;11.37;;;6.10;;
32786;SDS011;19139;49.372;8.580;2023-01-23T16:10:50;9.73;;;6.13;;
32786;SDS011;19139;49.372;8.580;2023-01-23T16:13:21;8.93;;;6.10;;
32786;SDS011;19139;49.372;8.580;2023-01-23T16:15:54;10.93;;;5.87;;
32786;SDS011;19139;49.372;8.580;2023-01-23T16:18:21;10.07;;;6.33;;
32786;SDS011;19139;49.372;8.580;2023-01-23T16:20:48;10.90;;;5.27;;
32786;SDS011;19139;49.372;8.580;2023-01-23T16:23:21;7.13;;;5.43;;
32786;SDS011;19139;49.372;8.580;2023-01-23T16:25:54;10.80;;;5.50;;
32786;SDS011;19139;49.372;8.580;2023-01-23T16:28:22;11.13;;;6.03;;
32786;SDS011;19139;49.372;8.580;2023-01-23T16:30:51;7.37;;;4.93;;
32786;SDS011;19139;49.372;8.580;2023-01-23T16:33:23;8.63;;;5.67;;
32786;SDS011;19139;49.372;8.580;2023-01-23T16:35:54;8.00;;;5.67;;
32786;SDS011;19139;49.372;8.580;2023-01-23T16:38:27;6.97;;;5.60;;